Airfield :
LOGIN :

Register | Disclaimer

   EN    FR    IT 

 










Legend :    VFR   Marginal VFR   IFR   Intensive IFR   Very Intensive IFR
Visi :
Ceiling :
>= 8 km
>= 3000ft
5 to 8 km
1000 to 3000 ft
1500m to 5 km
500 to 1000 ft
800 to 1500m
200 to 500 ft
< 800m
< 200 ft
Symbols :   Thunderstorms  Fog  Heavy snow  Heavy precipitations  Wind > 20 kt
SIGMETs :     Misc.  Thunderstorms  Icing  Turbulence  Mountain Waves  Volcanic Ashes






- Airport Elevation : 74 ft
- IATA code : EIN


EHEH - Eindhoven

CURRENT METAR :
  • 151925Z AUTO 19006KT 9999 SCT039 OVC100 14/13 Q1007 BLU 20006KT 9999 FEW020 BKN060 TEMPO SCT013 BKN050

EXPIRED METARs :
  • 151855Z AUTO 18005KT 9999 FEW044 SCT082 BKN090 14/13 Q1007 BLU 20006KT 9999 FEW020 BKN060 TEMPO SCT013 BKN050
  • 151837Z AUTO 19006KT 9999 SCT040/// BKN044/// OVC100/// 14/13 Q1007 BLU 20006KT 9999 FEW020 BKN060 TEMPO SCT013 BKN050
  • 151825Z AUTO 19006KT 160V220 9999 FEW032 OVC043 14/13 Q1007 BLU 20006KT 9999 FEW020 BKN060 TEMPO SCT013 BKN050
  • 151755Z AUTO 18005KT 9999 DZ BKN035 OVC042 14/13 Q1007 BLU 20006KT 9999 FEW020 BKN060 TEMPO SCT013 BKN050
  • 151736Z AUTO 18004KT 9999 -DZ BKN030/// BKN041/// BKN046/// 14/13 Q1007 BLU 20006KT 9999 FEW020 BKN060 TEMPO SCT013 BKN050
  • 151725Z AUTO 18005KT 9999 -DZ BKN068 OVC100 14/13 Q1007 BLU 20006KT 9999 FEW020 BKN060 TEMPO SCT013 BKN050
  • 151716Z AUTO 18004KT 150V210 9999 -RA FEW026 BKN069 BKN081 14/13 Q1006 BLU 20006KT 9999 FEW020 BKN060 TEMPO SCT013 BKN050
  • 151655Z AUTO 19004KT 150V210 9999 SCT071 BKN076 OVC082 14/13 Q1006 BLU 20006KT 9999 FEW018 BKN050 TEMPO SCT013 BKN050

TAF TAF EHEH
Valid from the 15 at 18:00 until the 17 at 00:00 UTC


151746Z 1518/1624 18005KT 9999 SCT025 OVC050
PROB40
TEMPO 1518/1520 FEW008 SCT013 BKN025
TEMPO 1600/1607 FEW012 SCT015 BKN020
BECMG 1609/1612 19013KT BKN018 OVC030
TEMPO 1609/1618 4500 RA SCT012 BKN015 OVC020
BECMG 1618/1620 4000 RA BKN012 OVC018
TEMPO 1619/1624 2000 +RADZ SCT006 BKN012



MET'MAP, your aeronautical weather chart ! - Copyright ORBIFLY December 2007 - Disclaimer

ORBIFLY MET'MAP TEAM :

Programming & Development : Alexandra Zaïnal
Concept & Development : Baudouin d'Aumeries
Co-Development & Prog : Marc-Olivier Méhu
Technical & hardware support : Manuel Goepfert

Contact : metmap@orbifly.com




SOURCES & CREDITS :

   NOAA